Welcome to Des Moines Iowa Weather. I am an independent private personal weather station on the Northwest Side of Des Moines, Iowa. Just East of Windsor Heights and just West of Glendale . This site is also mobile friendly.

There are no active watches, warnings or advisories


Visit our other weather sites:

Historical Data

Weather Station Setup



Weather Underground History page Text

Daily Summary for January 4, 2018 Units:  Both    English   Metric
« Previous Day
Next Day »
Daily Weekly Monthly Yearly Custom
  High: Low: Average:
Temperature: 11.8 °F /  -11.2 °C -4.6 °F /  -20.3 °C 4.3 °F /  -15.4 °C
Dew Point: 3.0 °F /  -16.1 °C -9.0 °F /  -22.8 °C -2.4 °F /  -19.1 °C
Humidity: 84 % 62 % 74 %
Wind Speed: 3.0 mph /  4.8 km/h - 0.2 mph /  0.3 km/h
Wind Gust: 5.0 mph /  8 km/h - -
Wind:- - West
Pressure: 30.51 in /  1033.1 hPa 30.41 in /  1029.7 hPa -
Precipitation: 0.00 in /  0 mm    
Historical Graphs
 
 
Tabular Data for January 4, 2018
Time Temperature Dew Point Pressure Wind Wind Speed Wind Gust Humidity Rainfall Rate (Hourly)
00:11 -1.9 °F /  -18.8 °C -7.0 °F /  -21.7 °C 30.45 in /  1031 hPa Calm     79 % 0.00 in /  0 mm
00:26 -2.3 °F /  -19.1 °C -7.0 °F /  -21.7 °C 30.45 in /  1031 hPa Calm   1.0 mph /  1.6 km/h 80 % 0.00 in /  0 mm
00:41 -2.8 °F /  -19.3 °C -8.0 °F /  -22.2 °C 30.46 in /  1031.4 hPa Calm     80 % 0.00 in /  0 mm
00:56 -3.1 °F /  -19.5 °C -8.0 °F /  -22.2 °C 30.46 in /  1031.4 hPa Calm     80 % 0.00 in /  0 mm
01:11 -3.5 °F /  -19.7 °C -8.0 °F /  -22.2 °C 30.47 in /  1031.7 hPa Calm     80 % 0.00 in /  0 mm
01:26 -3.8 °F /  -19.9 °C -9.0 °F /  -22.8 °C 30.46 in /  1031.4 hPa Calm     80 % 0.00 in /  0 mm
01:41 -4.1 °F /  -20.1 °C -9.0 °F /  -22.8 °C 30.46 in /  1031.4 hPa Calm     81 % 0.00 in /  0 mm
01:56 -4.4 °F /  -20.2 °C -9.0 °F /  -22.8 °C 30.47 in /  1031.7 hPa Calm     81 % 0.00 in /  0 mm
02:11 -4.5 °F /  -20.3 °C -9.0 °F /  -22.8 °C 30.47 in /  1031.7 hPa Calm   1.0 mph /  1.6 km/h 81 % 0.00 in /  0 mm
02:26 -4.5 °F /  -20.3 °C -9.0 °F /  -22.8 °C 30.47 in /  1031.7 hPa WNW 1.0 mph /  1.6 km/h 1.0 mph /  1.6 km/h 82 % 0.00 in /  0 mm
02:41 -4.5 °F /  -20.3 °C -9.0 °F /  -22.8 °C 30.47 in /  1031.7 hPa Calm   2.0 mph /  3.2 km/h 82 % 0.00 in /  0 mm
02:56 -4.4 °F /  -20.2 °C -9.0 °F /  -22.8 °C 30.47 in /  1031.7 hPa Calm   2.0 mph /  3.2 km/h 82 % 0.00 in /  0 mm
03:11 -4.5 °F /  -20.3 °C -9.0 °F /  -22.8 °C 30.47 in /  1031.7 hPa Calm     82 % 0.00 in /  0 mm
03:26 -4.5 °F /  -20.3 °C -9.0 °F /  -22.8 °C 30.47 in /  1031.7 hPa Calm     82 % 0.00 in /  0 mm
03:42 -4.5 °F /  -20.3 °C -8.0 °F /  -22.2 °C 30.47 in /  1031.7 hPa Calm   3.0 mph /  4.8 km/h 83 % 0.00 in /  0 mm
03:57 -4.5 °F /  -20.3 °C -8.0 °F /  -22.2 °C 30.47 in /  1031.7 hPa Calm   1.0 mph /  1.6 km/h 83 % 0.00 in /  0 mm
04:12 -4.6 °F /  -20.3 °C -9.0 °F /  -22.8 °C 30.46 in /  1031.4 hPa Calm   1.0 mph /  1.6 km/h 83 % 0.00 in /  0 mm
04:27 -4.5 °F /  -20.3 °C -8.0 °F /  -22.2 °C 30.46 in /  1031.4 hPa Calm   2.0 mph /  3.2 km/h 83 % 0.00 in /  0 mm
04:42 -4.3 °F /  -20.2 °C -8.0 °F /  -22.2 °C 30.48 in /  1032.1 hPa WNW 3.0 mph /  4.8 km/h 3.0 mph /  4.8 km/h 83 % 0.00 in /  0 mm
04:57 -4.1 °F /  -20.1 °C -8.0 °F /  -22.2 °C 30.48 in /  1032.1 hPa WNW 2.0 mph /  3.2 km/h 3.0 mph /  4.8 km/h 83 % 0.00 in /  0 mm
05:12 -4.1 °F /  -20.1 °C -8.0 °F /  -22.2 °C 30.48 in /  1032.1 hPa Calm   3.0 mph /  4.8 km/h 83 % 0.00 in /  0 mm
05:27 -4.2 °F /  -20.1 °C -8.0 °F /  -22.2 °C 30.47 in /  1031.7 hPa Calm   1.0 mph /  1.6 km/h 83 % 0.00 in /  0 mm
05:42 -4.1 °F /  -20.1 °C -8.0 °F /  -22.2 °C 30.48 in /  1032.1 hPa Calm     83 % 0.00 in /  0 mm
05:57 -4.1 °F /  -20.1 °C -8.0 °F /  -22.2 °C 30.46 in /  1031.4 hPa Calm   2.0 mph /  3.2 km/h 83 % 0.00 in /  0 mm
06:12 -3.9 °F /  -19.9 °C -8.0 °F /  -22.2 °C 30.48 in /  1032.1 hPa WNW 1.0 mph /  1.6 km/h 2.0 mph /  3.2 km/h 83 % 0.00 in /  0 mm
06:27 -3.7 °F /  -19.8 °C -7.0 °F /  -21.7 °C 30.47 in /  1031.7 hPa Calm     84 % 0.00 in /  0 mm
06:42 -3.2 °F /  -19.6 °C -7.0 °F /  -21.7 °C 30.48 in /  1032.1 hPa Calm   3.0 mph /  4.8 km/h 84 % 0.00 in /  0 mm
07:12 -2.2 °F /  -19 °C -6.0 °F /  -21.1 °C 30.48 in /  1032.1 hPa Calm   2.0 mph /  3.2 km/h 84 % 0.00 in /  0 mm
07:28 -1.8 °F /  -18.8 °C -6.0 °F /  -21.1 °C 30.48 in /  1032.1 hPa Calm   3.0 mph /  4.8 km/h 84 % 0.00 in /  0 mm
07:43 -1.6 °F /  -18.7 °C -6.0 °F /  -21.1 °C 30.50 in /  1032.7 hPa WNW 1.0 mph /  1.6 km/h 3.0 mph /  4.8 km/h 83 % 0.00 in /  0 mm
07:58 -1.4 °F /  -18.6 °C -5.0 °F /  -20.6 °C 30.50 in /  1032.7 hPa North 3.0 mph /  4.8 km/h 4.0 mph /  6.4 km/h 83 % 0.00 in /  0 mm
08:13 -1.4 °F /  -18.6 °C -6.0 °F /  -21.1 °C 30.50 in /  1032.7 hPa Calm   3.0 mph /  4.8 km/h 82 % 0.00 in /  0 mm
08:28 -1.2 °F /  -18.4 °C -5.0 °F /  -20.6 °C 30.49 in /  1032.4 hPa Calm   3.0 mph /  4.8 km/h 82 % 0.00 in /  0 mm
08:43 -0.8 °F /  -18.2 °C -5.0 °F /  -20.6 °C 30.49 in /  1032.4 hPa Calm     82 % 0.00 in /  0 mm
08:58 -0.1 °F /  -17.8 °C -4.0 °F /  -20 °C 30.50 in /  1032.7 hPa Calm   1.0 mph /  1.6 km/h 82 % 0.00 in /  0 mm
09:13 0.9 °F /  -17.3 °C -3.0 °F /  -19.4 °C 30.50 in /  1032.7 hPa North 1.0 mph /  1.6 km/h 1.0 mph /  1.6 km/h 82 % 0.00 in /  0 mm
09:28 1.8 °F /  -16.8 °C -3.0 °F /  -19.4 °C 30.51 in /  1033.1 hPa Calm   1.0 mph /  1.6 km/h 82 % 0.00 in /  0 mm
09:43 2.6 °F /  -16.3 °C -2.0 °F /  -18.9 °C 30.50 in /  1032.7 hPa Calm   3.0 mph /  4.8 km/h 81 % 0.00 in /  0 mm
09:58 3.4 °F /  -15.9 °C -2.0 °F /  -18.9 °C 30.51 in /  1033.1 hPa Calm     77 % 0.00 in /  0 mm
10:28 5.1 °F /  -14.9 °C -2.0 °F /  -18.9 °C 30.50 in /  1032.7 hPa Calm     73 % 0.00 in /  0 mm
10:44 6.2 °F /  -14.3 °C -1.0 °F /  -18.3 °C 30.50 in /  1032.7 hPa Calm   2.0 mph /  3.2 km/h 73 % 0.00 in /  0 mm
10:59 6.0 °F /  -14.4 °C -1.0 °F /  -18.3 °C 30.50 in /  1032.7 hPa Calm   2.0 mph /  3.2 km/h 72 % 0.00 in /  0 mm
11:14 6.2 °F /  -14.3 °C -2.0 °F /  -18.9 °C 30.49 in /  1032.4 hPa Calm   2.0 mph /  3.2 km/h 69 % 0.00 in /  0 mm
11:29 6.6 °F /  -14.1 °C -2.0 °F /  -18.9 °C 30.48 in /  1032.1 hPa Calm   3.0 mph /  4.8 km/h 69 % 0.00 in /  0 mm
11:44 8.2 °F /  -13.2 °C 0.0 °F /  -17.8 °C 30.47 in /  1031.7 hPa North 2.0 mph /  3.2 km/h 3.0 mph /  4.8 km/h 68 % 0.00 in /  0 mm
11:59 8.9 °F /  -12.8 °C 0.0 °F /  -17.8 °C 30.47 in /  1031.7 hPa Calm   2.0 mph /  3.2 km/h 67 % 0.00 in /  0 mm
12:14 8.8 °F /  -12.9 °C -1.0 °F /  -18.3 °C 30.46 in /  1031.4 hPa Calm   2.0 mph /  3.2 km/h 64 % 0.00 in /  0 mm
12:29 9.0 °F /  -12.8 °C -1.0 °F /  -18.3 °C 30.46 in /  1031.4 hPa Calm   1.0 mph /  1.6 km/h 64 % 0.00 in /  0 mm
12:44 9.7 °F /  -12.4 °C 0.0 °F /  -17.8 °C 30.46 in /  1031.4 hPa Calm   3.0 mph /  4.8 km/h 65 % 0.00 in /  0 mm
12:59 10.1 °F /  -12.2 °C 0.0 °F /  -17.8 °C 30.46 in /  1031.4 hPa Calm   2.0 mph /  3.2 km/h 64 % 0.00 in /  0 mm
13:14 10.3 °F /  -12.1 °C 0.0 °F /  -17.8 °C 30.45 in /  1031 hPa Calm   4.0 mph /  6.4 km/h 63 % 0.00 in /  0 mm
13:29 10.7 °F /  -11.8 °C 0.0 °F /  -17.8 °C 30.45 in /  1031 hPa Calm   2.0 mph /  3.2 km/h 63 % 0.00 in /  0 mm
13:44 10.7 °F /  -11.8 °C 0.0 °F /  -17.8 °C 30.45 in /  1031 hPa Calm   2.0 mph /  3.2 km/h 63 % 0.00 in /  0 mm
13:59 11.2 °F /  -11.6 °C 1.0 °F /  -17.2 °C 30.45 in /  1031 hPa Calm   2.0 mph /  3.2 km/h 63 % 0.00 in /  0 mm
14:15 11.1 °F /  -11.6 °C 1.0 °F /  -17.2 °C 30.44 in /  1030.7 hPa Calm   2.0 mph /  3.2 km/h 64 % 0.00 in /  0 mm
14:30 11.1 °F /  -11.6 °C 1.0 °F /  -17.2 °C 30.44 in /  1030.7 hPa Calm   2.0 mph /  3.2 km/h 63 % 0.00 in /  0 mm
14:45 11.0 °F /  -11.7 °C 1.0 °F /  -17.2 °C 30.44 in /  1030.7 hPa Calm   1.0 mph /  1.6 km/h 64 % 0.00 in /  0 mm
15:15 11.8 °F /  -11.2 °C 1.0 °F /  -17.2 °C 30.44 in /  1030.7 hPa Calm   2.0 mph /  3.2 km/h 62 % 0.00 in /  0 mm
15:30 11.4 °F /  -11.4 °C 1.0 °F /  -17.2 °C 30.43 in /  1030.4 hPa Calm   1.0 mph /  1.6 km/h 64 % 0.00 in /  0 mm
15:45 11.4 °F /  -11.4 °C 2.0 °F /  -16.7 °C 30.43 in /  1030.4 hPa Calm   2.0 mph /  3.2 km/h 65 % 0.00 in /  0 mm
16:00 11.4 °F /  -11.4 °C 2.0 °F /  -16.7 °C 30.43 in /  1030.4 hPa Calm   2.0 mph /  3.2 km/h 65 % 0.00 in /  0 mm
16:15 11.2 °F /  -11.6 °C 2.0 °F /  -16.7 °C 30.42 in /  1030 hPa Calm   1.0 mph /  1.6 km/h 65 % 0.00 in /  0 mm
16:30 10.9 °F /  -11.7 °C 1.0 °F /  -17.2 °C 30.42 in /  1030 hPa Calm     65 % 0.00 in /  0 mm
16:45 10.8 °F /  -11.8 °C 1.0 °F /  -17.2 °C 30.41 in /  1029.7 hPa Calm   2.0 mph /  3.2 km/h 66 % 0.00 in /  0 mm
17:00 10.6 °F /  -11.9 °C 1.0 °F /  -17.2 °C 30.41 in /  1029.7 hPa Calm   1.0 mph /  1.6 km/h 66 % 0.00 in /  0 mm
17:15 10.6 °F /  -11.9 °C 2.0 °F /  -16.7 °C 30.42 in /  1030 hPa Calm   1.0 mph /  1.6 km/h 67 % 0.00 in /  0 mm
17:30 10.6 °F /  -11.9 °C 2.0 °F /  -16.7 °C 30.41 in /  1029.7 hPa Calm   2.0 mph /  3.2 km/h 67 % 0.00 in /  0 mm
17:46 10.5 °F /  -11.9 °C 2.0 °F /  -16.7 °C 30.41 in /  1029.7 hPa Calm   1.0 mph /  1.6 km/h 67 % 0.00 in /  0 mm
18:01 10.4 °F /  -12 °C 1.0 °F /  -17.2 °C 30.42 in /  1030 hPa Calm   1.0 mph /  1.6 km/h 67 % 0.00 in /  0 mm
18:16 10.4 °F /  -12 °C 2.0 °F /  -16.7 °C 30.42 in /  1030 hPa Calm   2.0 mph /  3.2 km/h 68 % 0.00 in /  0 mm
18:46 10.3 °F /  -12.1 °C 2.0 °F /  -16.7 °C 30.42 in /  1030 hPa Calm   2.0 mph /  3.2 km/h 68 % 0.00 in /  0 mm
19:16 10.3 °F /  -12.1 °C 2.0 °F /  -16.7 °C 30.42 in /  1030 hPa North 2.0 mph /  3.2 km/h 2.0 mph /  3.2 km/h 68 % 0.00 in /  0 mm
19:31 10.2 °F /  -12.1 °C 2.0 °F /  -16.7 °C 30.41 in /  1029.7 hPa Calm   2.0 mph /  3.2 km/h 68 % 0.00 in /  0 mm
20:01 10.2 °F /  -12.1 °C 2.0 °F /  -16.7 °C 30.42 in /  1030 hPa Calm   2.0 mph /  3.2 km/h 69 % 0.00 in /  0 mm
20:16 10.2 °F /  -12.1 °C 2.0 °F /  -16.7 °C 30.43 in /  1030.4 hPa Calm   1.0 mph /  1.6 km/h 69 % 0.00 in /  0 mm
20:31 10.2 °F /  -12.1 °C 2.0 °F /  -16.7 °C 30.42 in /  1030 hPa Calm   4.0 mph /  6.4 km/h 70 % 0.00 in /  0 mm
20:47 10.1 °F /  -12.2 °C 2.0 °F /  -16.7 °C 30.42 in /  1030 hPa Calm   3.0 mph /  4.8 km/h 70 % 0.00 in /  0 mm
21:02 9.9 °F /  -12.3 °C 3.0 °F /  -16.1 °C 30.42 in /  1030 hPa Calm   4.0 mph /  6.4 km/h 72 % 0.00 in /  0 mm
21:17 9.7 °F /  -12.4 °C 3.0 °F /  -16.1 °C 30.42 in /  1030 hPa Calm   4.0 mph /  6.4 km/h 73 % 0.00 in /  0 mm
21:32 9.6 °F /  -12.4 °C 3.0 °F /  -16.1 °C 30.43 in /  1030.4 hPa Calm   2.0 mph /  3.2 km/h 73 % 0.00 in /  0 mm
21:47 9.6 °F /  -12.4 °C 3.0 °F /  -16.1 °C 30.43 in /  1030.4 hPa Calm   1.0 mph /  1.6 km/h 73 % 0.00 in /  0 mm
22:02 9.6 °F /  -12.4 °C 3.0 °F /  -16.1 °C 30.44 in /  1030.7 hPa Calm   3.0 mph /  4.8 km/h 73 % 0.00 in /  0 mm
22:17 9.6 °F /  -12.4 °C 3.0 °F /  -16.1 °C 30.44 in /  1030.7 hPa Calm     73 % 0.00 in /  0 mm
22:32 9.6 °F /  -12.4 °C 3.0 °F /  -16.1 °C 30.45 in /  1031 hPa Calm     73 % 0.00 in /  0 mm
22:47 9.7 °F /  -12.4 °C 3.0 °F /  -16.1 °C 30.44 in /  1030.7 hPa Calm   2.0 mph /  3.2 km/h 73 % 0.00 in /  0 mm
23:02 9.8 °F /  -12.3 °C 3.0 °F /  -16.1 °C 30.44 in /  1030.7 hPa West 3.0 mph /  4.8 km/h 4.0 mph /  6.4 km/h 73 % 0.00 in /  0 mm
23:17 9.8 °F /  -12.3 °C 3.0 °F /  -16.1 °C 30.43 in /  1030.4 hPa NE 1.0 mph /  1.6 km/h 4.0 mph /  6.4 km/h 74 % 0.00 in /  0 mm
23:32 9.6 °F /  -12.4 °C 3.0 °F /  -16.1 °C 30.44 in /  1030.7 hPa ENE 1.0 mph /  1.6 km/h 5.0 mph /  8 km/h 74 % 0.00 in /  0 mm
23:47 9.5 °F /  -12.5 °C 3.0 °F /  -16.1 °C 30.44 in /  1030.7 hPa Calm   3.0 mph /  4.8 km/h 74 % 0.00 in /  0 mm
Des Moines Weather and Climate
Compliments of Weather Underground - 2.75 mb

Script developed by  Jim McMurry - jmcmurry@mwt.net Adapted for the template by  Wim van der Kuil - Leuven-Template.eu

You find our weather info also at:

Weather Underground

Equipment we use:

Weather-station
Davis VP2 Plus

Weather-program
Davis Weatherlink.Com

Weather-server
iMac (Retina 4K, 21.5-inch, Late 2015)

Provider
Hostmonster.com

Davis VP2 Plus

Davis Weatherlink.Com

iMac (Retina 4K, 21.5-inch, Late 2015)

Hostmonster.com